createdAt,value
2022-12-01T00:01:39.002Z,100.00
2022-12-01T00:04:07.212Z,100.00
2022-12-01T00:06:35.301Z,100.00
2022-12-01T00:09:22.038Z,100.00
2022-12-01T00:11:50.408Z,100.00
2022-12-01T00:14:18.931Z,100.00
2022-12-01T00:16:47.169Z,100.00
2022-12-01T00:19:15.303Z,100.00
2022-12-01T00:21:43.367Z,100.00
2022-12-01T00:24:13.277Z,100.00
2022-12-01T00:26:41.595Z,100.00
2022-12-01T00:29:09.998Z,100.00
2022-12-01T00:31:38.246Z,100.00
2022-12-01T00:34:11.061Z,100.00
2022-12-01T00:36:40.600Z,100.00
2022-12-01T00:39:09.262Z,100.00
2022-12-01T00:41:38.828Z,100.00
2022-12-01T00:44:07.178Z,100.00
2022-12-01T00:46:35.299Z,100.00
2022-12-01T00:49:03.357Z,100.00
2022-12-01T00:51:31.658Z,100.00
2022-12-01T00:53:59.807Z,100.00
2022-12-01T00:56:28.188Z,100.00
2022-12-01T00:58:57.947Z,100.00
2022-12-01T01:01:26.267Z,100.00
2022-12-01T01:03:54.515Z,100.00
2022-12-01T01:06:22.692Z,100.00
2022-12-01T01:08:50.839Z,100.00
2022-12-01T01:11:19.041Z,100.00
2022-12-01T01:13:47.189Z,100.00
2022-12-01T01:16:19.856Z,100.00
2022-12-01T01:18:48.249Z,100.00
2022-12-01T01:21:18.191Z,100.00
2022-12-01T01:23:46.604Z,100.00
2022-12-01T01:26:16.575Z,100.00
2022-12-01T01:28:44.791Z,100.00
2022-12-01T01:31:17.852Z,100.00
2022-12-01T01:33:46.149Z,100.00
2022-12-01T01:36:14.862Z,100.00
2022-12-01T01:38:43.325Z,100.00
2022-12-01T01:41:12.144Z,100.00
2022-12-01T01:43:45.850Z,100.00
2022-12-01T01:46:16.164Z,100.00
2022-12-01T01:48:49.571Z,100.00
2022-12-01T01:51:21.945Z,100.00
2022-12-01T01:53:52.143Z,100.00
2022-12-01T01:56:20.044Z,100.00
2022-12-01T01:58:48.736Z,100.00
2022-12-01T02:01:16.855Z,100.00
2022-12-01T02:03:47.510Z,100.00
2022-12-01T02:06:16.357Z,100.00
2022-12-01T02:08:44.581Z,100.00
2022-12-01T02:11:34.685Z,100.00
2022-12-01T02:14:10.012Z,100.00
2022-12-01T02:16:48.252Z,100.00
2022-12-01T02:19:42.347Z,100.00
2022-12-01T02:22:20.709Z,100.00
2022-12-01T02:25:24.568Z,100.00
2022-12-01T02:28:31.071Z,100.00
2022-12-01T02:31:05.828Z,100.00
2022-12-01T02:33:39.755Z,100.00
2022-12-01T02:36:17.027Z,100.00
2022-12-01T02:38:53.245Z,100.00
2022-12-01T02:41:29.660Z,100.00
2022-12-01T02:44:06.988Z,100.00
2022-12-01T02:46:41.908Z,100.00
2022-12-01T02:49:15.590Z,100.00
2022-12-01T02:51:45.814Z,100.00
2022-12-01T02:54:14.608Z,100.00
2022-12-01T02:56:45.776Z,100.00
2022-12-01T02:59:16.368Z,100.00
2022-12-01T03:02:07.804Z,100.00
2022-12-01T03:04:47.801Z,100.00
2022-12-01T03:07:33.264Z,100.00
2022-12-01T03:10:13.351Z,100.00
2022-12-01T03:12:51.872Z,100.00
2022-12-01T03:15:32.266Z,100.00
2022-12-01T03:18:09.000Z,100.00
2022-12-01T03:20:42.311Z,100.00
2022-12-01T03:23:14.980Z,100.00
2022-12-01T03:25:48.515Z,100.00
2022-12-01T03:28:22.643Z,100.00
2022-12-01T03:30:56.260Z,100.00
2022-12-01T03:33:32.712Z,100.00
2022-12-01T03:36:04.791Z,100.00
2022-12-01T03:38:36.383Z,100.00
2022-12-01T03:41:09.519Z,100.00
2022-12-01T03:43:42.253Z,100.00
2022-12-01T03:46:13.706Z,100.00
2022-12-01T03:48:43.614Z,100.00
2022-12-01T03:51:16.944Z,100.00
2022-12-01T03:53:52.873Z,100.00
2022-12-01T03:56:25.371Z,100.00
2022-12-01T03:58:58.212Z,100.00
2022-12-01T04:01:28.347Z,100.00
2022-12-01T04:03:57.597Z,100.00
2022-12-01T04:06:25.832Z,100.00
2022-12-01T04:08:53.939Z,100.00
2022-12-01T04:11:39.437Z,100.00
2022-12-01T04:14:07.525Z,100.00
2022-12-01T04:16:35.730Z,100.00
2022-12-01T04:19:05.514Z,100.00
2022-12-01T04:21:33.695Z,100.00
2022-12-01T04:24:01.933Z,100.00
2022-12-01T04:26:31.014Z,100.00
2022-12-01T04:28:59.685Z,100.00
2022-12-01T04:31:28.510Z,100.00
2022-12-01T04:33:56.866Z,100.00
2022-12-01T04:36:27.227Z,100.00
2022-12-01T04:38:55.451Z,100.00
2022-12-01T04:41:23.727Z,100.00
2022-12-01T04:43:54.735Z,100.00
2022-12-01T04:46:23.273Z,100.00
2022-12-01T04:48:51.707Z,100.00
2022-12-01T04:51:21.530Z,100.00
2022-12-01T04:53:51.427Z,100.00
2022-12-01T04:56:19.941Z,100.00
2022-12-01T04:58:48.107Z,100.00
2022-12-01T05:01:18.372Z,100.00
2022-12-01T05:03:50.372Z,100.00
2022-12-01T05:06:20.113Z,100.00
2022-12-01T05:08:48.616Z,100.00
2022-12-01T05:11:19.681Z,100.00
2022-12-01T05:13:49.536Z,100.00
2022-12-01T05:16:20.243Z,100.00
2022-12-01T05:19:12.285Z,100.00
2022-12-01T05:21:39.940Z,100.00
2022-12-01T05:24:08.602Z,100.00
2022-12-01T05:26:38.318Z,100.00
2022-12-01T05:29:08.704Z,100.00
2022-12-01T05:31:36.945Z,100.00
2022-12-01T05:34:05.318Z,100.00
2022-12-01T05:36:33.923Z,100.00
2022-12-01T05:39:02.051Z,100.00
2022-12-01T05:41:30.121Z,100.00
2022-12-01T05:43:59.665Z,100.00
2022-12-01T05:46:27.852Z,100.00
2022-12-01T05:48:56.095Z,100.00
2022-12-01T05:51:24.573Z,100.00
2022-12-01T05:53:52.688Z,100.00
2022-12-01T05:56:20.895Z,100.00
2022-12-01T05:58:48.919Z,100.00
2022-12-01T06:01:18.596Z,100.00
2022-12-01T06:03:46.821Z,100.00
2022-12-01T06:06:15.223Z,100.00
2022-12-01T06:08:43.339Z,100.00
2022-12-01T06:11:11.495Z,100.00
2022-12-01T06:13:40.075Z,100.00
2022-12-01T06:16:09.027Z,100.00
2022-12-01T06:18:39.863Z,100.00
2022-12-01T06:21:08.384Z,100.00
2022-12-01T06:23:36.610Z,100.00
2022-12-01T06:26:05.020Z,100.00
2022-12-01T06:28:33.245Z,100.00
2022-12-01T06:31:03.742Z,100.00
2022-12-01T06:33:32.709Z,100.00
2022-12-01T06:36:03.750Z,100.00
2022-12-01T06:38:33.358Z,100.00
2022-12-01T06:41:01.489Z,100.00
2022-12-01T06:43:29.819Z,100.00
2022-12-01T06:46:01.955Z,100.00
2022-12-01T06:48:30.664Z,100.00
2022-12-01T06:50:59.000Z,100.00
2022-12-01T06:53:28.845Z,100.00
2022-12-01T06:56:01.251Z,100.00
2022-12-01T06:58:29.928Z,100.00
2022-12-01T07:00:58.956Z,100.00
2022-12-01T07:03:27.408Z,100.00
2022-12-01T07:06:00.084Z,100.00
2022-12-01T07:08:31.004Z,100.00
2022-12-01T07:11:00.499Z,100.00
2022-12-01T07:13:33.137Z,100.00
2022-12-01T07:16:02.374Z,100.00
2022-12-01T07:18:31.038Z,100.00
2022-12-01T07:21:02.264Z,100.00
2022-12-01T07:23:32.450Z,100.00
2022-12-01T07:26:02.812Z,100.00
2022-12-01T07:28:31.445Z,100.00
2022-12-01T07:31:04.256Z,100.00
2022-12-01T07:33:33.032Z,100.00
2022-12-01T07:36:01.644Z,100.00
2022-12-01T07:38:33.591Z,100.00
2022-12-01T07:41:05.761Z,100.00
2022-12-01T07:43:34.599Z,100.00
2022-12-01T07:46:08.819Z,100.00
2022-12-01T07:48:38.382Z,100.00
2022-12-01T07:51:06.751Z,100.00
2022-12-01T07:53:40.045Z,100.00
2022-12-01T07:56:09.014Z,100.00
2022-12-01T07:58:42.859Z,100.00
2022-12-01T08:01:13.274Z,100.00
2022-12-01T08:03:42.513Z,100.00
2022-12-01T08:06:11.589Z,100.00
2022-12-01T08:08:42.798Z,100.00
2022-12-01T08:11:13.538Z,100.00
2022-12-01T08:13:43.862Z,100.00
2022-12-01T08:16:13.643Z,100.00
2022-12-01T08:18:42.964Z,100.00
2022-12-01T08:21:13.000Z,100.00
2022-12-01T08:23:42.802Z,100.00
2022-12-01T08:26:14.030Z,100.00
2022-12-01T08:28:42.754Z,100.00
2022-12-01T08:31:12.248Z,100.00
2022-12-01T08:33:40.406Z,100.00
2022-12-01T08:36:09.124Z,100.00
2022-12-01T08:38:37.265Z,100.00
2022-12-01T08:41:08.604Z,100.00
2022-12-01T08:46:29.627Z,100.00
2022-12-01T08:48:58.180Z,100.00
2022-12-01T08:51:27.321Z,100.00
2022-12-01T08:53:56.754Z,100.00
2022-12-01T08:56:28.151Z,100.00
2022-12-01T08:58:56.641Z,100.00
2022-12-01T09:01:26.472Z,100.00
2022-12-01T09:04:05.916Z,100.00
2022-12-01T09:06:39.973Z,100.00
2022-12-01T09:09:08.168Z,100.00
2022-12-01T09:11:37.885Z,100.00
2022-12-01T09:14:06.300Z,100.00
2022-12-01T09:16:34.839Z,100.00
2022-12-01T09:19:03.792Z,100.00
2022-12-01T09:21:34.881Z,100.00
2022-12-01T09:24:03.912Z,100.00
2022-12-01T09:26:32.463Z,100.00
2022-12-01T09:29:04.885Z,100.00
2022-12-01T09:31:34.486Z,100.00
2022-12-01T09:34:04.860Z,100.00
2022-12-01T09:36:34.379Z,100.00
2022-12-01T09:39:02.991Z,100.00
2022-12-01T09:41:34.612Z,100.00
2022-12-01T09:44:14.033Z,100.00
2022-12-01T09:46:47.488Z,99.56
2022-12-01T09:49:20.103Z,99.42
2022-12-01T09:51:48.295Z,99.47
2022-12-01T09:54:16.666Z,99.25
2022-12-01T09:56:49.499Z,99.09
2022-12-01T09:59:23.850Z,98.69
2022-12-01T10:01:56.443Z,98.63
2022-12-01T10:04:30.071Z,98.35
2022-12-01T10:07:02.311Z,98.25
2022-12-01T10:09:37.759Z,98.33
2022-12-01T10:12:14.565Z,97.98
2022-12-01T10:14:46.093Z,97.47
2022-12-01T10:17:28.470Z,97.59
2022-12-01T10:20:02.291Z,97.24
2022-12-01T10:22:46.568Z,97.13
2022-12-01T10:25:23.416Z,96.80
2022-12-01T10:28:13.851Z,96.44
2022-12-01T10:30:51.010Z,96.25
2022-12-01T10:33:25.369Z,95.81
2022-12-01T10:35:54.902Z,95.53
2022-12-01T10:38:28.619Z,95.29
2022-12-01T10:41:00.979Z,95.05
2022-12-01T10:43:34.333Z,94.66
2022-12-01T10:46:09.690Z,94.38
2022-12-01T10:48:53.951Z,94.09
2022-12-01T10:51:22.772Z,93.85
2022-12-01T10:53:51.497Z,93.79
2022-12-01T10:56:21.925Z,93.96
2022-12-01T10:58:52.954Z,93.80
2022-12-01T11:01:25.388Z,93.71
2022-12-01T11:03:58.126Z,93.43
2022-12-01T11:06:30.684Z,93.16
2022-12-01T11:09:01.405Z,92.90
2022-12-01T11:11:33.166Z,92.85
2022-12-01T11:14:06.133Z,92.70
2022-12-01T11:16:44.114Z,92.42
2022-12-01T11:19:29.353Z,91.71
2022-12-01T11:21:58.956Z,91.61
2022-12-01T11:24:31.100Z,91.72
2022-12-01T11:27:00.960Z,91.53
2022-12-01T11:29:36.725Z,91.24
2022-12-01T11:32:17.909Z,91.01
2022-12-01T11:34:51.831Z,90.64
2022-12-01T11:37:22.835Z,90.43
2022-12-01T11:39:53.023Z,89.95
2022-12-01T11:42:29.114Z,89.84
2022-12-01T11:45:06.497Z,89.65
2022-12-01T11:47:36.011Z,89.37
2022-12-01T11:50:24.185Z,89.13
2022-12-01T11:52:52.341Z,88.86
2022-12-01T11:55:24.762Z,88.30
2022-12-01T11:57:55.922Z,88.11
2022-12-01T12:00:26.403Z,87.72
2022-12-01T12:03:20.234Z,87.23
2022-12-01T12:06:39.125Z,86.74
2022-12-01T12:09:04.414Z,87.13
2022-12-01T12:11:41.507Z,86.39
2022-12-01T12:14:31.725Z,86.50
2022-12-01T12:17:14.844Z,86.14
2022-12-01T12:20:07.600Z,85.65
2022-12-01T12:22:52.342Z,85.58
2022-12-01T12:25:32.370Z,84.47
2022-12-01T12:28:17.108Z,84.16
2022-12-01T12:30:57.277Z,83.47
2022-12-01T12:33:43.401Z,83.21
2022-12-01T12:36:25.650Z,82.68
2022-12-01T12:39:05.922Z,82.70
2022-12-01T12:41:36.890Z,82.78
2022-12-01T12:44:30.014Z,81.75
2022-12-01T12:47:14.642Z,81.38
2022-12-01T12:49:50.376Z,79.54
2022-12-01T12:52:25.126Z,78.68
2022-12-01T12:54:58.763Z,78.64
2022-12-01T12:57:32.717Z,78.46
2022-12-01T13:00:04.329Z,79.29
2022-12-01T13:02:37.677Z,79.34
2022-12-01T13:05:11.549Z,79.18
2022-12-01T13:07:46.950Z,79.25
2022-12-01T13:10:29.787Z,79.20
2022-12-01T13:13:04.646Z,79.45
2022-12-01T13:15:36.555Z,79.81
2022-12-01T13:18:13.684Z,80.04
2022-12-01T13:20:42.585Z,79.90
2022-12-01T13:23:19.127Z,79.96
2022-12-01T13:25:51.728Z,79.45
2022-12-01T13:28:23.727Z,79.59
2022-12-01T13:31:04.046Z,79.62
2022-12-01T13:33:33.911Z,78.45
2022-12-01T13:36:38.206Z,78.17
2022-12-01T13:39:00.331Z,78.12
2022-12-01T13:41:31.321Z,78.22
2022-12-01T13:44:02.259Z,77.95
2022-12-01T13:46:33.148Z,77.75
2022-12-01T13:49:04.541Z,77.31
2022-12-01T13:52:05.679Z,77.15
2022-12-01T13:54:38.453Z,77.36
2022-12-01T13:57:12.659Z,77.48
2022-12-01T14:00:21.620Z,77.65
2022-12-01T14:03:38.859Z,77.72
2022-12-01T14:06:22.177Z,77.54
2022-12-01T14:08:54.683Z,77.80
2022-12-01T14:11:26.457Z,77.76
2022-12-01T14:13:58.857Z,77.76
2022-12-01T14:16:46.198Z,77.32
2022-12-01T14:19:30.872Z,77.25
2022-12-01T14:22:03.017Z,77.18
2022-12-01T14:24:36.224Z,77.05
2022-12-01T14:27:07.667Z,77.17
2022-12-01T14:29:38.921Z,76.38
2022-12-01T14:32:22.544Z,75.14
2022-12-01T14:34:57.216Z,74.56
2022-12-01T14:37:34.745Z,74.05
2022-12-01T14:40:08.523Z,73.42
2022-12-01T14:43:01.581Z,73.45
2022-12-01T14:45:35.307Z,73.29
2022-12-01T14:48:06.239Z,73.96
2022-12-01T14:50:46.435Z,74.19
2022-12-01T14:53:23.890Z,73.96
2022-12-01T14:55:57.570Z,74.24
2022-12-01T14:58:29.141Z,73.60
2022-12-01T15:01:04.025Z,73.38
2022-12-01T15:03:37.201Z,73.58
2022-12-01T15:06:05.862Z,73.51
2022-12-01T15:08:53.275Z,72.70
2022-12-01T15:11:26.679Z,72.50
2022-12-01T15:13:58.032Z,72.10
2022-12-01T15:16:30.460Z,72.17
2022-12-01T15:18:58.871Z,72.07
2022-12-01T15:21:28.799Z,72.21
2022-12-01T15:23:59.704Z,72.37
2022-12-01T15:26:31.366Z,72.65
2022-12-01T15:29:16.948Z,73.46
2022-12-01T15:31:48.334Z,73.76
2022-12-01T15:34:19.537Z,73.88
2022-12-01T15:36:48.466Z,74.34
2022-12-01T15:39:19.595Z,74.55
2022-12-01T15:41:54.401Z,74.73
2022-12-01T15:44:29.687Z,74.84
2022-12-01T15:46:57.943Z,75.49
2022-12-01T15:49:30.011Z,75.89
2022-12-01T15:52:08.826Z,76.53
2022-12-01T15:54:38.915Z,77.02
2022-12-01T15:57:08.116Z,77.82
2022-12-01T15:59:41.824Z,78.42
2022-12-01T16:02:28.920Z,78.81
2022-12-01T16:05:05.603Z,79.23
2022-12-01T16:08:11.937Z,79.44
2022-12-01T16:10:28.671Z,79.96
2022-12-01T16:13:30.888Z,80.23
2022-12-01T16:16:00.501Z,80.58
2022-12-01T16:18:32.937Z,80.81
2022-12-01T16:21:04.381Z,81.26
2022-12-01T16:23:33.523Z,81.52
2022-12-01T16:26:02.419Z,81.93
2022-12-01T16:28:35.849Z,82.34
2022-12-01T16:31:10.182Z,82.94
2022-12-01T16:33:40.878Z,83.29
2022-12-01T16:36:09.812Z,83.59
2022-12-01T16:38:39.197Z,83.91
2022-12-01T16:41:16.994Z,84.32
2022-12-01T16:44:05.377Z,84.61
2022-12-01T16:46:35.378Z,84.78
2022-12-01T16:49:03.540Z,85.25
2022-12-01T16:51:54.395Z,85.34
2022-12-01T16:54:20.265Z,85.76
2022-12-01T16:56:49.565Z,86.23
2022-12-01T16:59:17.732Z,86.49
2022-12-01T17:01:47.474Z,86.78
2022-12-01T17:04:15.971Z,87.12
2022-12-01T17:06:44.141Z,87.33
2022-12-01T17:09:12.415Z,87.36
2022-12-01T17:11:40.650Z,87.76
2022-12-01T17:14:10.252Z,87.91
2022-12-01T17:16:38.886Z,88.30
2022-12-01T17:19:08.455Z,88.44
2022-12-01T17:21:36.576Z,88.69
2022-12-01T17:24:05.146Z,88.98
2022-12-01T17:26:33.322Z,89.05
2022-12-01T17:29:01.707Z,89.07
2022-12-01T17:31:29.948Z,89.38
2022-12-01T17:33:57.989Z,89.56
2022-12-01T17:36:27.568Z,89.80
2022-12-01T17:39:01.305Z,90.01
2022-12-01T17:41:35.822Z,90.24
2022-12-01T17:44:07.858Z,90.43
2022-12-01T17:46:36.028Z,90.56
2022-12-01T17:49:09.551Z,90.71
2022-12-01T17:51:39.694Z,90.84
2022-12-01T17:54:07.581Z,90.76
2022-12-01T17:56:36.163Z,90.58
2022-12-01T17:59:04.275Z,90.71
2022-12-01T18:01:55.257Z,90.32
2022-12-01T18:04:23.412Z,90.43
2022-12-01T18:06:54.476Z,90.08
2022-12-01T18:09:23.452Z,89.96
2022-12-01T18:11:57.205Z,90.14
2022-12-01T18:14:37.013Z,89.99
2022-12-01T18:17:05.509Z,89.96
2022-12-01T18:19:33.810Z,90.11
2022-12-01T18:22:03.397Z,90.24
2022-12-01T18:24:31.639Z,90.24
2022-12-01T18:26:59.776Z,90.24
2022-12-01T18:29:30.459Z,90.27
2022-12-01T18:32:00.474Z,89.73
2022-12-01T18:34:30.608Z,89.70
2022-12-01T18:36:58.684Z,89.52
2022-12-01T18:39:28.325Z,89.14
2022-12-01T18:41:56.570Z,88.62
2022-12-01T18:44:24.709Z,88.34
2022-12-01T18:46:53.112Z,88.23
2022-12-01T18:49:21.299Z,87.89
2022-12-01T18:51:49.402Z,87.56
2022-12-01T18:54:18.101Z,86.66
2022-12-01T18:56:47.762Z,86.15
2022-12-01T18:59:17.412Z,85.36
2022-12-01T19:01:46.627Z,85.70
2022-12-01T19:04:17.552Z,85.22
2022-12-01T19:06:46.784Z,84.65
2022-12-01T19:09:18.173Z,84.31
2022-12-01T19:11:48.149Z,84.25
2022-12-01T19:14:19.820Z,84.46
2022-12-01T19:16:48.261Z,84.34
2022-12-01T19:19:16.693Z,84.49
2022-12-01T19:21:45.496Z,84.51
2022-12-01T19:24:13.706Z,84.13
2022-12-01T19:26:41.821Z,83.46
2022-12-01T19:29:11.498Z,83.54
2022-12-01T19:31:40.180Z,83.15
2022-12-01T19:34:08.604Z,82.91
2022-12-01T19:36:37.547Z,82.68
2022-12-01T19:39:07.782Z,82.32
2022-12-01T19:41:36.107Z,81.92
2022-12-01T19:44:04.311Z,81.82
2022-12-01T19:46:33.956Z,81.91
2022-12-01T19:49:03.176Z,81.88
2022-12-01T19:51:35.272Z,81.83
2022-12-01T19:54:04.340Z,81.91
2022-12-01T19:56:32.784Z,81.87
2022-12-01T19:59:01.663Z,81.95
2022-12-01T20:01:30.208Z,81.69
2022-12-01T20:03:59.683Z,81.71
2022-12-01T20:06:32.168Z,81.73
2022-12-01T20:09:04.321Z,81.86
2022-12-01T20:11:35.343Z,81.80
2022-12-01T20:14:04.887Z,81.82
2022-12-01T20:16:33.483Z,81.85
2022-12-01T20:19:05.528Z,82.06
2022-12-01T20:21:35.455Z,82.00
2022-12-01T20:24:05.695Z,82.16
2022-12-01T20:26:35.196Z,82.08
2022-12-01T20:29:05.685Z,82.01
2022-12-01T20:31:35.536Z,82.13
2022-12-01T20:34:09.134Z,82.26
2022-12-01T20:36:37.446Z,82.05
2022-12-01T20:39:06.570Z,82.29
2022-12-01T20:41:35.243Z,82.46
2022-12-01T20:44:07.761Z,82.51
2022-12-01T20:46:38.222Z,82.53
2022-12-01T20:49:08.444Z,82.67
2022-12-01T20:51:36.510Z,82.81
2022-12-01T20:56:55.823Z,82.72
2022-12-01T20:59:24.530Z,82.66
2022-12-01T21:01:54.297Z,82.90
2022-12-01T21:04:24.403Z,82.70
2022-12-01T21:06:53.619Z,82.38
2022-12-01T21:09:21.751Z,82.10
2022-12-01T21:12:20.531Z,81.98
2022-12-01T21:14:56.215Z,81.74
2022-12-01T21:17:34.467Z,82.09
2022-12-01T21:20:24.979Z,82.04
2022-12-01T21:22:59.720Z,82.32
2022-12-01T21:25:33.246Z,82.28
2022-12-01T21:28:22.503Z,82.47
2022-12-01T21:30:54.132Z,82.55
2022-12-01T21:33:29.307Z,82.96
2022-12-01T21:36:01.154Z,83.23
2022-12-01T21:38:29.809Z,83.39
2022-12-01T21:40:58.351Z,83.65
2022-12-01T21:43:38.596Z,84.19
2022-12-01T21:46:15.297Z,84.37
2022-12-01T21:48:44.585Z,84.54
2022-12-01T21:51:23.331Z,84.73
2022-12-01T21:53:53.079Z,85.08
2022-12-01T21:56:23.004Z,85.01
2022-12-01T21:58:51.871Z,85.06
2022-12-01T22:01:26.118Z,85.43
2022-12-01T22:04:01.810Z,85.73
2022-12-01T22:06:37.048Z,85.74
2022-12-01T22:09:20.945Z,85.76
2022-12-01T22:11:53.072Z,85.61
2022-12-01T22:14:25.444Z,85.72
2022-12-01T22:17:00.624Z,85.63
2022-12-01T22:19:31.922Z,85.62
2022-12-01T22:22:18.729Z,85.52
2022-12-01T22:24:48.874Z,85.52
2022-12-01T22:27:29.391Z,85.57
2022-12-01T22:29:58.507Z,85.45
2022-12-01T22:32:57.233Z,85.19
2022-12-01T22:35:31.131Z,85.11
2022-12-01T22:38:27.702Z,85.22
2022-12-01T22:40:59.363Z,85.25
2022-12-01T22:43:44.700Z,85.26
2022-12-01T22:46:30.592Z,85.27
2022-12-01T22:49:00.789Z,85.42
2022-12-01T22:51:30.386Z,85.42
2022-12-01T22:54:07.561Z,85.22
2022-12-01T22:56:39.878Z,85.33
2022-12-01T22:59:16.168Z,85.45
2022-12-01T23:01:52.499Z,85.59
2022-12-01T23:04:25.075Z,85.47
2022-12-01T23:07:28.921Z,85.48
2022-12-01T23:10:03.727Z,85.50
2022-12-01T23:12:33.568Z,85.54
2022-12-01T23:15:16.656Z,85.69
2022-12-01T23:17:44.755Z,85.59
2022-12-01T23:20:29.604Z,85.49
2022-12-01T23:23:00.174Z,85.68
2022-12-01T23:25:30.195Z,85.86
2022-12-01T23:28:04.204Z,85.73
2022-12-01T23:30:34.113Z,85.92
2022-12-01T23:33:16.523Z,85.79
2022-12-01T23:35:49.257Z,85.87
2022-12-01T23:38:20.396Z,86.29
2022-12-01T23:40:51.453Z,85.99
2022-12-01T23:43:22.243Z,86.13
2022-12-01T23:45:57.715Z,86.42
2022-12-01T23:48:33.386Z,86.82
2022-12-01T23:51:01.487Z,86.95
2022-12-01T23:53:32.204Z,86.94
2022-12-01T23:56:05.739Z,87.06
2022-12-01T23:58:35.460Z,87.29
